Schedule Details


Flight Number: CTN432
Departure: Kastela (LDSP) at 13:35
Arrival: Tegel (EDDT) at 15:20
Route: IRMI M725 RUDIK UM725 ZAG UL187 OBUTI DCT TISKO DCT OKF L858 HDO M748 ESLOR UM748 OSKAN T203 AKUDI

Weather Information
LDSP 290130Z AUTO 27011KT CAVOK 13/06 Q1008
EDDT 290120Z 25018KT 9999 FEW011 BKN024 04/01 Q0995
Schedule Frequency

Route Map